createdAt,value
2022-08-19T00:01:30.584Z,91.09
2022-08-19T00:03:58.980Z,90.90
2022-08-19T00:06:25.862Z,90.69
2022-08-19T00:08:52.221Z,90.60
2022-08-19T00:11:25.825Z,90.55
2022-08-19T00:13:52.767Z,90.21
2022-08-19T00:16:19.835Z,91.01
2022-08-19T00:18:51.809Z,91.29
2022-08-19T00:21:18.265Z,91.35
2022-08-19T00:23:44.694Z,90.73
2022-08-19T00:26:12.137Z,90.71
2022-08-19T00:28:39.192Z,90.53
2022-08-19T00:31:07.480Z,90.31
2022-08-19T00:33:34.568Z,90.18
2022-08-19T00:36:06.807Z,90.04
2022-08-19T00:38:37.505Z,90.16
2022-08-19T00:41:05.755Z,90.25
2022-08-19T00:43:32.251Z,90.18
2022-08-19T00:45:59.909Z,89.99
2022-08-19T00:48:26.352Z,90.06
2022-08-19T00:50:54.557Z,91.13
2022-08-19T00:53:25.071Z,91.42
2022-08-19T00:55:55.904Z,91.79
2022-08-19T00:58:27.164Z,93.11
2022-08-19T01:00:53.775Z,93.32
2022-08-19T01:03:22.733Z,94.02
2022-08-19T01:05:51.758Z,93.96
2022-08-19T01:08:20.080Z,93.36
2022-08-19T01:10:51.347Z,93.08
2022-08-19T01:13:21.730Z,93.88
2022-08-19T01:15:52.981Z,94.26
2022-08-19T01:18:21.249Z,93.66
2022-08-19T01:20:47.905Z,93.14
2022-08-19T01:23:15.225Z,92.98
2022-08-19T01:25:46.389Z,93.62
2022-08-19T01:28:34.094Z,93.45
2022-08-19T01:31:08.354Z,93.77
2022-08-19T01:33:35.128Z,94.07
2022-08-19T01:36:15.424Z,94.73
2022-08-19T01:38:44.286Z,94.12
2022-08-19T01:41:12.284Z,94.39
2022-08-19T01:43:39.214Z,94.34
2022-08-19T01:46:25.582Z,93.69
2022-08-19T01:48:52.005Z,93.92
2022-08-19T01:51:18.408Z,93.20
2022-08-19T01:53:48.518Z,93.66
2022-08-19T01:56:14.946Z,93.33
2022-08-19T01:58:47.781Z,93.16
2022-08-19T02:01:14.221Z,93.31
2022-08-19T02:03:40.829Z,93.32
2022-08-19T02:06:07.442Z,93.39
2022-08-19T02:08:37.172Z,93.73
2022-08-19T02:11:05.011Z,94.15
2022-08-19T02:13:32.023Z,94.94
2022-08-19T02:15:58.540Z,94.91
2022-08-19T02:18:27.939Z,95.07
2022-08-19T02:20:55.596Z,95.47
2022-08-19T02:23:21.960Z,97.35
2022-08-19T02:25:49.395Z,97.44
2022-08-19T02:28:18.738Z,96.38
2022-08-19T02:30:47.837Z,95.47
2022-08-19T02:33:14.449Z,95.38
2022-08-19T02:35:45.542Z,94.88
2022-08-19T02:38:12.214Z,95.40
2022-08-19T02:40:38.592Z,95.01
2022-08-19T02:43:06.977Z,95.58
2022-08-19T02:45:35.221Z,94.87
2022-08-19T02:48:02.033Z,94.63
2022-08-19T02:50:33.204Z,93.99
2022-08-19T02:52:59.641Z,94.36
2022-08-19T02:55:26.005Z,95.41
2022-08-19T02:57:52.351Z,95.72
2022-08-19T03:00:18.713Z,94.90
2022-08-19T03:02:45.092Z,94.74
2022-08-19T03:05:11.593Z,94.58
2022-08-19T03:07:38.368Z,94.45
2022-08-19T03:10:05.509Z,94.48
2022-08-19T03:12:31.907Z,94.10
2022-08-19T03:14:58.249Z,94.85
2022-08-19T03:17:24.660Z,95.94
2022-08-19T03:19:51.093Z,96.41
2022-08-19T03:22:17.441Z,96.75
2022-08-19T03:24:43.861Z,96.32
2022-08-19T03:27:10.288Z,96.18
2022-08-19T03:29:43.155Z,96.10
2022-08-19T03:32:29.686Z,95.44
2022-08-19T03:34:57.392Z,95.19
2022-08-19T03:37:23.770Z,95.63
2022-08-19T03:39:50.198Z,95.28
2022-08-19T03:42:32.858Z,94.88
2022-08-19T03:45:03.489Z,94.81
2022-08-19T03:47:30.140Z,94.62
2022-08-19T03:49:56.521Z,94.29
2022-08-19T03:52:22.884Z,94.89
2022-08-19T03:54:49.227Z,94.26
2022-08-19T03:57:15.631Z,94.27
2022-08-19T03:59:41.992Z,94.40
2022-08-19T04:02:12.596Z,94.30
2022-08-19T04:04:40.361Z,94.84
2022-08-19T04:07:07.469Z,94.54
2022-08-19T04:09:35.453Z,94.82
2022-08-19T04:12:01.828Z,95.37
2022-08-19T04:14:30.109Z,96.12
2022-08-19T04:16:57.498Z,96.35
2022-08-19T04:19:23.893Z,96.81
2022-08-19T04:21:52.994Z,96.37
2022-08-19T04:24:20.752Z,96.47
2022-08-19T04:26:47.586Z,96.79
2022-08-19T04:29:18.834Z,97.33
2022-08-19T04:31:45.700Z,98.04
2022-08-19T04:34:14.080Z,99.95
2022-08-19T04:36:42.678Z,99.04
2022-08-19T04:39:16.654Z,98.79
2022-08-19T04:41:43.729Z,98.67
2022-08-19T04:44:10.583Z,98.12
2022-08-19T04:46:40.317Z,98.17
2022-08-19T04:49:22.409Z,98.55
2022-08-19T04:51:50.295Z,98.40
2022-08-19T04:54:21.369Z,97.56
2022-08-19T04:57:05.102Z,96.76
2022-08-19T04:59:31.977Z,97.09
2022-08-19T05:01:58.333Z,96.79
2022-08-19T05:04:24.715Z,97.44
2022-08-19T05:06:51.117Z,97.88
2022-08-19T05:09:17.959Z,97.39
2022-08-19T05:11:45.067Z,97.34
2022-08-19T05:14:12.326Z,97.59
2022-08-19T05:16:39.157Z,97.24
2022-08-19T05:19:05.584Z,97.47
2022-08-19T05:21:32.422Z,97.30
2022-08-19T05:23:58.861Z,96.78
2022-08-19T05:26:26.878Z,97.30
2022-08-19T05:28:54.648Z,96.83
2022-08-19T05:31:22.149Z,96.55
2022-08-19T05:33:48.998Z,96.98
2022-08-19T05:36:15.404Z,97.05
2022-08-19T05:38:41.785Z,96.21
2022-08-19T05:41:12.409Z,94.65
2022-08-19T05:43:39.003Z,93.27
2022-08-19T05:46:08.299Z,91.86
2022-08-19T05:48:36.382Z,90.75
2022-08-19T05:51:06.789Z,85.19
2022-08-19T05:53:34.244Z,84.86
2022-08-19T05:56:08.962Z,81.56
2022-08-19T05:58:36.876Z,80.75
2022-08-19T06:01:04.550Z,82.18
2022-08-19T06:03:32.688Z,78.46
2022-08-19T06:05:59.049Z,77.96
2022-08-19T06:08:33.808Z,75.96
2022-08-19T06:11:15.529Z,76.44
2022-08-19T06:13:41.896Z,76.03
2022-08-19T06:16:08.269Z,73.34
2022-08-19T06:18:34.619Z,70.82
2022-08-19T06:21:00.979Z,67.44
2022-08-19T06:23:27.313Z,65.27
2022-08-19T06:25:53.688Z,63.79
2022-08-19T06:28:20.316Z,61.77
2022-08-19T06:30:46.825Z,56.48
2022-08-19T06:33:13.338Z,58.45
2022-08-19T06:35:41.380Z,61.13
2022-08-19T06:38:07.814Z,61.16
2022-08-19T06:40:34.288Z,59.85
2022-08-19T06:43:01.012Z,56.96
2022-08-19T06:45:34.895Z,56.41
2022-08-19T06:48:02.372Z,55.77
2022-08-19T06:50:29.627Z,53.56
2022-08-19T06:52:56.209Z,52.54
2022-08-19T06:55:25.223Z,51.55
2022-08-19T06:57:52.482Z,49.78
2022-08-19T07:00:19.010Z,48.17
2022-08-19T07:02:49.726Z,48.30
2022-08-19T07:05:19.709Z,48.67
2022-08-19T07:07:47.673Z,48.08
2022-08-19T07:10:14.438Z,47.17
2022-08-19T07:12:40.776Z,47.45
2022-08-19T07:15:07.650Z,46.46
2022-08-19T07:17:34.439Z,45.55
2022-08-19T07:20:05.448Z,45.15
2022-08-19T07:22:36.181Z,44.06
2022-08-19T07:25:03.873Z,44.50
2022-08-19T07:27:30.793Z,44.51
2022-08-19T07:30:00.576Z,43.53
2022-08-19T07:32:27.158Z,42.94
2022-08-19T07:34:53.590Z,43.54
2022-08-19T07:37:22.930Z,43.71
2022-08-19T07:39:49.491Z,43.81
2022-08-19T07:42:15.896Z,42.85
2022-08-19T07:44:42.702Z,41.79
2022-08-19T07:47:49.020Z,40.50
2022-08-19T07:50:05.700Z,40.57
2022-08-19T07:52:34.412Z,40.88
2022-08-19T07:55:00.777Z,40.44
2022-08-19T07:57:27.137Z,40.04
2022-08-19T07:59:53.556Z,40.48
2022-08-19T08:02:19.919Z,39.98
2022-08-19T08:04:46.317Z,39.44
2022-08-19T08:07:13.041Z,38.58
2022-08-19T08:09:42.011Z,39.29
2022-08-19T08:12:32.868Z,38.22
2022-08-19T08:15:02.747Z,40.27
2022-08-19T08:17:48.567Z,39.87
2022-08-19T08:20:16.979Z,39.80
2022-08-19T08:22:45.628Z,38.96
2022-08-19T08:25:20.376Z,37.98
2022-08-19T08:27:48.069Z,38.78
2022-08-19T08:30:24.385Z,37.81
2022-08-19T08:32:51.528Z,38.02
2022-08-19T08:35:21.501Z,37.26
2022-08-19T08:37:51.230Z,35.86
2022-08-19T08:40:24.540Z,37.30
2022-08-19T08:43:06.806Z,37.74
2022-08-19T08:45:47.416Z,35.90
2022-08-19T08:48:47.452Z,36.40
2022-08-19T08:51:30.873Z,37.89
2022-08-19T08:54:02.381Z,37.39
2022-08-19T08:59:05.393Z,36.69
2022-08-19T09:01:31.716Z,35.41
2022-08-19T09:04:02.871Z,35.49
2022-08-19T09:06:44.676Z,37.16
2022-08-19T09:09:17.948Z,36.83
2022-08-19T09:11:59.337Z,37.63
2022-08-19T09:14:51.572Z,36.14
2022-08-19T09:17:22.873Z,36.45
2022-08-19T09:19:55.069Z,37.24
2022-08-19T09:22:25.501Z,37.11
2022-08-19T09:24:52.923Z,38.14
2022-08-19T09:27:20.725Z,38.22
2022-08-19T09:29:47.752Z,38.12
2022-08-19T09:32:26.260Z,37.50
2022-08-19T09:34:53.355Z,37.72
2022-08-19T09:37:21.487Z,37.59
2022-08-19T09:39:51.876Z,37.32
2022-08-19T09:42:29.770Z,37.77
2022-08-19T09:44:56.974Z,37.51
2022-08-19T09:47:25.773Z,37.78
2022-08-19T09:49:52.256Z,39.21
2022-08-19T09:52:18.633Z,38.90
2022-08-19T09:54:45.066Z,39.94
2022-08-19T09:57:18.494Z,39.69
2022-08-19T09:59:44.864Z,39.44
2022-08-19T10:02:11.508Z,38.42
2022-08-19T10:04:37.866Z,39.20
2022-08-19T10:07:04.304Z,37.86
2022-08-19T10:09:34.364Z,38.07
2022-08-19T10:12:03.050Z,38.51
2022-08-19T10:14:29.997Z,38.26
2022-08-19T10:16:56.424Z,37.33
2022-08-19T10:19:25.904Z,37.82
2022-08-19T10:21:53.395Z,36.29
2022-08-19T10:24:19.760Z,38.09
2022-08-19T10:26:46.142Z,37.71
2022-08-19T10:29:13.265Z,38.01
2022-08-19T10:32:02.196Z,38.26
2022-08-19T10:34:30.288Z,37.42
2022-08-19T10:37:01.323Z,36.43
2022-08-19T10:39:30.574Z,37.35
2022-08-19T10:41:57.429Z,36.81
2022-08-19T10:44:24.015Z,37.00
2022-08-19T10:46:50.682Z,36.11
2022-08-19T10:49:17.113Z,36.43
2022-08-19T10:51:47.969Z,36.64
2022-08-19T10:54:15.532Z,36.22
2022-08-19T10:56:41.938Z,36.59
2022-08-19T10:59:08.333Z,36.63
2022-08-19T11:01:35.709Z,37.17
2022-08-19T11:04:04.407Z,35.01
2022-08-19T11:06:33.026Z,36.10
2022-08-19T11:08:59.536Z,37.52
2022-08-19T11:11:25.928Z,37.87
2022-08-19T11:13:52.765Z,36.96
2022-08-19T11:16:22.668Z,37.21
2022-08-19T11:18:51.964Z,36.84
2022-08-19T11:21:22.947Z,36.44
2022-08-19T11:23:52.492Z,37.21
2022-08-19T11:26:20.773Z,37.57
2022-08-19T11:28:47.481Z,36.56
2022-08-19T11:31:16.565Z,37.03
2022-08-19T11:33:47.833Z,36.91
2022-08-19T11:36:15.077Z,38.15
2022-08-19T11:38:41.600Z,38.77
2022-08-19T11:41:08.278Z,38.54
2022-08-19T11:43:37.644Z,37.11
2022-08-19T11:46:09.197Z,37.05
2022-08-19T11:48:36.347Z,37.32
2022-08-19T11:51:07.032Z,37.66
2022-08-19T11:53:34.036Z,38.54
2022-08-19T11:56:00.380Z,39.59
2022-08-19T11:58:26.780Z,39.75
2022-08-19T12:00:53.707Z,39.77
2022-08-19T12:03:20.208Z,37.87
2022-08-19T12:05:47.282Z,38.08
2022-08-19T12:08:14.220Z,37.62
2022-08-19T12:10:41.185Z,38.41
2022-08-19T12:13:07.744Z,39.27
2022-08-19T12:15:39.197Z,38.04
2022-08-19T12:18:05.619Z,37.85
2022-08-19T12:20:35.517Z,38.05
2022-08-19T12:23:04.185Z,38.02
2022-08-19T12:25:30.529Z,36.46
2022-08-19T12:27:57.623Z,36.30
2022-08-19T12:30:25.139Z,35.54
2022-08-19T12:32:52.134Z,37.11
2022-08-19T12:35:19.316Z,36.71
2022-08-19T12:37:56.724Z,36.34
2022-08-19T12:40:26.417Z,35.95
2022-08-19T12:42:53.613Z,35.33
2022-08-19T12:45:20.010Z,35.65
2022-08-19T12:47:47.667Z,35.70
2022-08-19T12:50:14.310Z,35.39
2022-08-19T12:52:40.670Z,34.79
2022-08-19T12:55:08.780Z,35.35
2022-08-19T12:57:35.523Z,35.78
2022-08-19T13:00:14.296Z,35.01
2022-08-19T13:02:42.479Z,35.40
2022-08-19T13:05:11.128Z,33.12
2022-08-19T13:07:40.088Z,34.82
2022-08-19T13:10:11.480Z,35.23
2022-08-19T13:12:38.129Z,35.63
2022-08-19T13:15:10.768Z,36.84
2022-08-19T13:17:38.778Z,36.67
2022-08-19T13:20:05.793Z,36.52
2022-08-19T13:22:32.151Z,35.88
2022-08-19T13:24:58.517Z,35.78
2022-08-19T13:27:24.890Z,35.93
2022-08-19T13:29:51.264Z,34.71
2022-08-19T13:32:18.683Z,35.85
2022-08-19T13:34:45.153Z,36.65
2022-08-19T13:37:11.500Z,37.67
2022-08-19T13:39:37.915Z,37.53
2022-08-19T13:42:04.767Z,37.17
2022-08-19T13:44:31.187Z,37.91
2022-08-19T13:47:03.158Z,38.20
2022-08-19T13:49:29.673Z,38.45
2022-08-19T13:51:56.393Z,38.79
2022-08-19T13:54:22.776Z,38.44
2022-08-19T13:56:49.129Z,38.84
2022-08-19T13:59:15.570Z,38.04
2022-08-19T14:01:42.328Z,40.81
2022-08-19T14:04:09.252Z,41.73
2022-08-19T14:06:35.939Z,43.23
2022-08-19T14:09:02.460Z,43.97
2022-08-19T14:11:29.717Z,45.43
2022-08-19T14:13:58.660Z,46.18
2022-08-19T14:16:25.018Z,47.41
2022-08-19T14:18:52.250Z,47.94
2022-08-19T14:21:21.915Z,49.08
2022-08-19T14:23:48.272Z,49.94
2022-08-19T14:26:18.037Z,50.33
2022-08-19T14:28:45.329Z,50.96
2022-08-19T14:31:16.186Z,52.34
2022-08-19T14:33:42.534Z,52.45
2022-08-19T14:36:08.987Z,52.92
2022-08-19T14:38:35.534Z,53.42
2022-08-19T14:41:17.839Z,54.73
2022-08-19T14:43:45.945Z,54.57
2022-08-19T14:46:12.452Z,55.27
2022-08-19T14:48:39.101Z,55.81
2022-08-19T14:51:08.265Z,56.34
2022-08-19T14:53:34.711Z,56.29
2022-08-19T14:56:01.574Z,56.95
2022-08-19T14:58:30.376Z,57.13
2022-08-19T15:00:59.478Z,57.34
2022-08-19T15:03:25.947Z,57.51
2022-08-19T15:05:52.630Z,58.15
2022-08-19T15:08:19.210Z,58.83
2022-08-19T15:10:45.930Z,59.73
2022-08-19T15:13:12.475Z,60.19
2022-08-19T15:15:38.926Z,61.34
2022-08-19T15:18:05.445Z,61.56
2022-08-19T15:20:31.860Z,62.09
2022-08-19T15:22:58.869Z,62.68
2022-08-19T15:25:25.388Z,65.15
2022-08-19T15:27:51.959Z,63.72
2022-08-19T15:30:26.218Z,65.22
2022-08-19T15:32:52.688Z,65.97
2022-08-19T15:35:20.498Z,68.91
2022-08-19T15:37:50.275Z,67.93
2022-08-19T15:40:17.103Z,70.08
2022-08-19T15:42:43.518Z,70.72
2022-08-19T15:45:11.476Z,69.44
2022-08-19T15:47:38.796Z,69.89
2022-08-19T15:50:11.627Z,69.88
2022-08-19T15:52:55.043Z,70.85
2022-08-19T15:55:32.783Z,69.16
2022-08-19T15:58:21.844Z,69.07
2022-08-19T16:00:54.952Z,67.88
2022-08-19T16:03:23.126Z,68.35
2022-08-19T16:05:49.513Z,67.71
2022-08-19T16:08:15.910Z,68.44
2022-08-19T16:10:42.464Z,67.80
2022-08-19T16:13:08.892Z,67.91
2022-08-19T16:15:35.317Z,68.31
2022-08-19T16:18:01.865Z,68.75
2022-08-19T16:20:28.796Z,68.50
2022-08-19T16:22:57.217Z,69.20
2022-08-19T16:25:24.068Z,69.18
2022-08-19T16:28:06.455Z,69.25
2022-08-19T16:30:34.609Z,69.82
2022-08-19T16:33:00.985Z,70.66
2022-08-19T16:35:27.360Z,70.73
2022-08-19T16:37:53.905Z,70.84
2022-08-19T16:40:20.418Z,70.94
2022-08-19T16:42:46.858Z,71.49
2022-08-19T16:45:13.417Z,71.76
2022-08-19T16:47:39.825Z,71.90
2022-08-19T16:50:06.446Z,71.97
2022-08-19T16:52:33.397Z,72.27
2022-08-19T16:54:59.761Z,73.03
2022-08-19T16:57:26.120Z,73.89
2022-08-19T16:59:52.513Z,73.05
2022-08-19T17:02:20.999Z,72.91
2022-08-19T17:04:58.231Z,72.84
2022-08-19T17:07:27.238Z,72.56
2022-08-19T17:09:53.665Z,72.09
2022-08-19T17:12:21.652Z,71.73
2022-08-19T17:14:47.998Z,71.83
2022-08-19T17:17:14.578Z,71.52
2022-08-19T17:19:43.137Z,71.41
2022-08-19T17:22:11.339Z,72.04
2022-08-19T17:24:37.951Z,72.40
2022-08-19T17:27:07.762Z,72.28
2022-08-19T17:29:34.757Z,72.17
2022-08-19T17:32:01.834Z,72.15
2022-08-19T17:34:28.217Z,71.98
2022-08-19T17:36:54.584Z,72.10
2022-08-19T17:39:20.924Z,72.23
2022-08-19T17:41:47.289Z,72.12
2022-08-19T17:44:13.668Z,72.29
2022-08-19T17:46:40.041Z,73.08
2022-08-19T17:49:06.408Z,73.33
2022-08-19T17:51:32.716Z,75.38
2022-08-19T17:54:00.059Z,73.87
2022-08-19T17:56:26.483Z,74.12
2022-08-19T17:58:59.761Z,74.50
2022-08-19T18:01:28.827Z,74.67
2022-08-19T18:04:11.018Z,74.58
2022-08-19T18:06:37.605Z,74.76
2022-08-19T18:09:06.065Z,75.17
2022-08-19T18:11:33.841Z,75.51
2022-08-19T18:14:00.440Z,75.69
2022-08-19T18:16:26.833Z,76.18
2022-08-19T18:18:53.234Z,76.34
2022-08-19T18:21:19.665Z,76.94
2022-08-19T18:23:46.308Z,76.95
2022-08-19T18:26:12.735Z,77.17
2022-08-19T18:28:39.250Z,77.13
2022-08-19T18:31:15.824Z,77.42
2022-08-19T18:33:44.255Z,77.54
2022-08-19T18:36:11.644Z,77.89
2022-08-19T18:38:38.017Z,78.00
2022-08-19T18:41:07.437Z,78.26
2022-08-19T18:43:33.867Z,78.49
2022-08-19T18:46:00.209Z,79.05
2022-08-19T18:48:28.147Z,78.98
2022-08-19T18:50:59.489Z,79.41
2022-08-19T18:53:28.823Z,79.45
2022-08-19T18:55:55.923Z,79.48
2022-08-19T18:58:28.160Z,79.79
2022-08-19T19:00:54.927Z,77.63
2022-08-19T19:03:21.321Z,77.25
2022-08-19T19:05:47.680Z,77.25
2022-08-19T19:08:14.048Z,77.19
2022-08-19T19:10:40.407Z,77.54
2022-08-19T19:13:06.740Z,78.15
2022-08-19T19:15:33.106Z,78.26
2022-08-19T19:17:59.893Z,78.81
2022-08-19T19:20:35.340Z,79.14
2022-08-19T19:23:03.675Z,80.06
2022-08-19T19:25:49.673Z,81.65
2022-08-19T19:28:16.408Z,80.66
2022-08-19T19:30:42.775Z,80.73
2022-08-19T19:33:09.140Z,81.07
2022-08-19T19:35:35.500Z,81.23
2022-08-19T19:38:01.844Z,81.02
2022-08-19T19:40:28.217Z,80.66
2022-08-19T19:42:54.617Z,80.78
2022-08-19T19:45:21.260Z,80.60
2022-08-19T19:47:47.630Z,82.57
2022-08-19T19:50:15.540Z,81.69
2022-08-19T19:52:44.288Z,82.43
2022-08-19T19:55:10.940Z,82.07
2022-08-19T19:57:37.310Z,81.97
2022-08-19T20:00:05.511Z,81.54
2022-08-19T20:02:31.871Z,81.97
2022-08-19T20:04:58.246Z,82.38
2022-08-19T20:07:24.644Z,82.66
2022-08-19T20:09:59.587Z,82.50
2022-08-19T20:12:26.734Z,82.31
2022-08-19T20:14:53.142Z,82.41
2022-08-19T20:17:19.511Z,82.61
2022-08-19T20:19:45.857Z,82.75
2022-08-19T20:22:12.218Z,83.71
2022-08-19T20:24:38.581Z,83.50
2022-08-19T20:27:05.418Z,83.07
2022-08-19T20:29:38.895Z,83.61
2022-08-19T20:32:09.377Z,83.77
2022-08-19T20:34:35.775Z,84.55
2022-08-19T20:37:02.172Z,85.41
2022-08-19T20:39:28.758Z,84.86
2022-08-19T20:41:55.147Z,85.25
2022-08-19T20:44:21.766Z,85.28
2022-08-19T20:46:54.781Z,85.42
2022-08-19T20:49:22.801Z,85.71
2022-08-19T20:51:53.794Z,86.42
2022-08-19T20:54:20.140Z,86.10
2022-08-19T20:56:46.480Z,86.61
2022-08-19T20:59:12.865Z,86.28
2022-08-19T21:01:39.648Z,87.12
2022-08-19T21:04:06.047Z,86.39
2022-08-19T21:06:32.590Z,86.31
2022-08-19T21:08:58.941Z,86.50
2022-08-19T21:11:25.304Z,86.58
2022-08-19T21:13:51.662Z,86.79
2022-08-19T21:16:18.081Z,87.04
2022-08-19T21:18:44.495Z,86.87
2022-08-19T21:21:10.906Z,87.08
2022-08-19T21:23:37.313Z,86.93
2022-08-19T21:26:03.681Z,87.30
2022-08-19T21:28:35.876Z,87.05
2022-08-19T21:31:04.869Z,86.87
2022-08-19T21:33:31.891Z,86.88
2022-08-19T21:35:59.298Z,87.29
2022-08-19T21:38:25.912Z,87.14
2022-08-19T21:40:52.248Z,87.00
2022-08-19T21:43:18.695Z,87.00
2022-08-19T21:45:46.592Z,87.07
2022-08-19T21:48:13.468Z,87.01
2022-08-19T21:50:41.354Z,86.53
2022-08-19T21:53:07.723Z,86.87
2022-08-19T21:55:38.701Z,87.58
2022-08-19T21:58:05.066Z,87.33
2022-08-19T22:00:32.652Z,87.60
2022-08-19T22:02:59.085Z,87.27
2022-08-19T22:05:26.183Z,87.51
2022-08-19T22:07:55.398Z,87.71
2022-08-19T22:10:27.396Z,87.71
2022-08-19T22:12:55.039Z,87.78
2022-08-19T22:15:22.434Z,88.12
2022-08-19T22:17:49.782Z,87.89
2022-08-19T22:20:20.258Z,87.57
2022-08-19T22:22:49.490Z,87.83
2022-08-19T22:25:30.088Z,87.71
2022-08-19T22:28:00.459Z,87.95
2022-08-19T22:30:33.152Z,87.71
2022-08-19T22:33:02.245Z,88.14
2022-08-19T22:35:31.671Z,88.64
2022-08-19T22:38:01.902Z,88.94
2022-08-19T22:40:30.200Z,89.02
2022-08-19T22:43:02.268Z,89.12
2022-08-19T22:45:29.864Z,88.80
2022-08-19T22:47:57.007Z,88.99
2022-08-19T22:50:24.300Z,89.09
2022-08-19T22:52:56.191Z,89.05
2022-08-19T22:55:22.564Z,88.87
2022-08-19T22:57:49.017Z,88.73
2022-08-19T23:00:16.107Z,88.60
2022-08-19T23:02:51.698Z,89.23
2022-08-19T23:05:22.037Z,89.76
2022-08-19T23:07:52.066Z,89.70
2022-08-19T23:10:27.159Z,89.70
2022-08-19T23:12:56.687Z,89.89
2022-08-19T23:15:25.914Z,90.11
2022-08-19T23:17:54.640Z,90.37
2022-08-19T23:20:22.815Z,90.52
2022-08-19T23:22:49.339Z,91.02
2022-08-19T23:25:19.791Z,90.77
2022-08-19T23:27:47.520Z,91.39
2022-08-19T23:30:13.968Z,91.24
2022-08-19T23:32:40.316Z,91.25
2022-08-19T23:35:07.232Z,90.88
2022-08-19T23:37:33.600Z,90.96
2022-08-19T23:39:59.975Z,91.13
2022-08-19T23:42:26.430Z,91.20
2022-08-19T23:44:53.075Z,90.74
2022-08-19T23:47:20.380Z,91.07
2022-08-19T23:49:46.790Z,90.94
2022-08-19T23:52:13.151Z,91.49
2022-08-19T23:54:43.744Z,90.94
2022-08-19T23:57:13.537Z,91.08
2022-08-19T23:59:40.709Z,90.72
